Time;durP1;ratioP1;P1;durP2;ratioP2;P2;SDS_P1;SDS_P2;PMS_P1;PMS_P2;Temp;Humidity;BMP_temperature;BMP_pressure;BME280_temperature;BME280_humidity;BME280_pressure;Samples;Min_cycle;Max_cycle;Signal;HPM_P1;HPM_P2
2022/07/21 00:00:32;;;;;;;21.38;13.15;;;19.60;99.90;;;;;;4975493;28;20050;-75
2022/07/21 00:02:58;;;;;;;21.17;14.65;;;19.60;99.90;;;;;;4997073;28;20512;-74
2022/07/21 00:05:27;;;;;;;21.10;13.88;;;19.60;99.90;;;;;;4980543;28;20095;-73
2022/07/21 00:07:58;;;;;;;20.60;14.07;;;19.60;99.90;;;;;;4997581;28;20188;-72
2022/07/21 00:10:39;;;;;;;23.27;16.52;;;19.60;99.90;;;;;;4996409;28;20053;-70
2022/07/21 00:13:16;;;;;;;19.65;15.05;;;19.60;99.90;;;;;;4982319;28;20034;-68
2022/07/21 00:15:48;;;;;;;18.30;14.20;;;19.60;99.90;;;;;;4981710;28;20091;-68
2022/07/21 00:18:17;;;;;;;24.08;15.57;;;19.60;99.90;;;;;;5014893;28;20049;-68
2022/07/21 00:20:51;;;;;;;28.15;18.25;;;19.50;99.90;;;;;;4996422;28;20124;-69
2022/07/21 00:23:23;;;;;;;32.00;17.67;;;19.50;99.90;;;;;;4997641;28;20045;-67
2022/07/21 00:25:50;;;;;;;27.98;17.23;;;19.50;99.90;;;;;;5011829;28;20081;-67
2022/07/21 00:28:28;;;;;;;36.50;21.33;;;19.50;99.90;;;;;;4997446;28;20494;-67
2022/07/21 00:30:57;;;;;;;30.67;19.33;;;19.50;99.90;;;;;;4997111;28;20480;-65
2022/07/21 00:33:23;;;;;;;23.75;15.93;;;19.50;99.90;;;;;;5014624;28;20176;-64
2022/07/21 00:35:52;;;;;;;29.30;20.27;;;19.50;99.90;;;;;;4996973;28;20042;-65
2022/07/21 00:38:18;;;;;;;25.05;17.95;;;19.50;99.90;;;;;;4996979;28;20087;-65
2022/07/21 00:40:56;;;;;;;24.00;17.52;;;19.50;99.90;;;;;;4997100;28;20042;-65
2022/07/21 00:43:44;;;;;;;25.80;17.98;;;19.50;99.90;;;;;;4981068;28;20041;-65
2022/07/21 00:46:13;;;;;;;25.08;18.73;;;19.50;99.90;;;;;;4980702;28;20049;-66
2022/07/21 00:48:40;;;;;;;35.33;22.02;;;19.40;99.90;;;;;;4980912;28;20046;-66
2022/07/21 00:51:09;;;;;;;26.67;19.05;;;19.40;99.90;;;;;;4996625;28;20085;-67
2022/07/21 00:53:35;;;;;;;38.28;23.95;;;19.40;99.90;;;;;;4996944;28;20038;-66
2022/07/21 00:56:01;;;;;;;29.23;20.55;;;19.40;99.90;;;;;;5011874;28;20408;-66
2022/07/21 00:58:27;;;;;;;23.08;17.75;;;19.40;99.90;;;;;;5014160;28;20240;-67
2022/07/21 01:00:53;;;;;;;30.95;19.45;;;19.40;99.90;;;;;;5014266;28;20560;-67
2022/07/21 01:03:19;;;;;;;29.13;20.88;;;19.40;99.90;;;;;;4996539;28;20049;-67
2022/07/21 01:05:45;;;;;;;26.70;20.30;;;19.40;99.90;;;;;;4996498;28;20476;-69
2022/07/21 01:08:11;;;;;;;30.27;21.45;;;19.40;99.90;;;;;;4980109;28;20073;-69
2022/07/21 01:10:39;;;;;;;29.63;20.92;;;19.40;99.90;;;;;;5013802;28;20046;-69
2022/07/21 01:13:05;;;;;;;37.03;25.35;;;19.30;99.90;;;;;;4996233;28;20488;-69
2022/07/21 01:15:31;;;;;;;41.20;25.35;;;19.30;99.90;;;;;;4996329;28;20046;-67
2022/07/21 01:17:57;;;;;;;41.75;25.92;;;19.30;99.90;;;;;;4996444;28;20038;-67
2022/07/21 01:20:24;;;;;;;44.72;27.20;;;19.30;99.90;;;;;;4980013;28;20089;-67
2022/07/21 01:22:52;;;;;;;41.97;26.40;;;19.30;99.90;;;;;;4996048;28;20045;-67
2022/07/21 01:25:20;;;;;;;40.42;24.23;;;19.30;99.90;;;;;;4993854;28;20042;-67
2022/07/21 01:27:47;;;;;;;37.58;27.13;;;19.30;99.90;;;;;;5013672;28;20049;-66
2022/07/21 01:30:13;;;;;;;42.45;26.15;;;19.30;99.90;;;;;;4996162;28;20097;-66
2022/07/21 01:32:40;;;;;;;37.40;24.92;;;19.30;99.90;;;;;;4980125;28;20452;-67
2022/07/21 01:35:08;;;;;;;39.40;25.15;;;19.30;99.90;;;;;;4995874;28;20046;-67
2022/07/21 01:37:37;;;;;;;32.97;24.52;;;19.30;99.90;;;;;;4995994;28;20033;-66
2022/07/21 01:42:48;;;;;;;42.38;26.38;;;19.30;99.90;;;;;;4995757;28;20046;-67
2022/07/21 01:45:13;;;;;;;32.20;24.08;;;19.20;99.90;;;;;;5013342;28;20048;-67
2022/07/21 01:47:40;;;;;;;36.13;23.92;;;19.20;99.90;;;;;;4979595;28;20080;-66
2022/07/21 01:50:08;;;;;;;40.35;25.70;;;19.20;99.90;;;;;;5013243;28;20584;-66
2022/07/21 01:52:34;;;;;;;37.00;24.95;;;19.20;99.90;;;;;;4995704;28;20042;-67
2022/07/21 01:54:59;;;;;;;44.28;28.05;;;19.20;99.90;;;;;;4977271;28;20560;-66
2022/07/21 01:57:25;;;;;;;44.42;27.58;;;19.20;99.90;;;;;;4995729;28;20120;-66
2022/07/21 01:59:51;;;;;;;46.85;29.33;;;19.20;99.90;;;;;;4995796;28;20377;-66
2022/07/21 02:02:20;;;;;;;49.10;29.33;;;19.20;99.90;;;;;;4995294;28;20053;-66
2022/07/21 02:04:47;;;;;;;49.60;31.25;;;19.20;99.90;;;;;;4995813;28;20514;-66
2022/07/21 02:07:13;;;;;;;53.40;32.65;;;19.20;99.90;;;;;;4995319;28;20412;-65
2022/07/21 02:09:40;;;;;;;43.83;29.92;;;19.30;99.90;;;;;;5013233;28;20388;-66
2022/07/21 02:12:06;;;;;;;41.30;27.48;;;19.30;99.90;;;;;;4991143;28;20546;-66
2022/07/21 02:14:31;;;;;;;57.50;33.00;;;19.30;99.90;;;;;;4991137;28;20053;-66
2022/07/21 02:16:57;;;;;;;56.83;34.20;;;19.30;99.90;;;;;;5004763;28;20114;-67
2022/07/21 02:19:23;;;;;;;75.80;39.70;;;19.30;99.90;;;;;;4981617;28;20412;-67
2022/07/21 02:21:49;;;;;;;40.50;28.83;;;19.30;99.90;;;;;;5012795;28;20579;-66
2022/07/21 02:24:15;;;;;;;77.72;38.95;;;19.30;99.90;;;;;;4993346;28;20074;-67
2022/07/21 02:26:40;;;;;;;98.22;43.97;;;19.30;99.90;;;;;;5012327;28;20046;-67
2022/07/21 02:29:06;;;;;;;112.88;46.08;;;19.40;99.90;;;;;;5012543;28;20113;-67
2022/07/21 02:31:35;;;;;;;41.70;29.75;;;19.40;99.90;;;;;;4994557;28;20388;-67
2022/07/21 02:34:01;;;;;;;113.22;47.85;;;19.40;99.90;;;;;;4975841;28;20054;-67
2022/07/21 02:36:27;;;;;;;59.83;33.80;;;19.40;99.90;;;;;;4975470;28;20121;-67
2022/07/21 02:38:53;;;;;;;43.67;28.90;;;19.40;99.90;;;;;;4975670;28;20125;-67
2022/07/21 02:41:18;;;;;;;77.93;37.20;;;19.40;99.90;;;;;;4975532;28;20085;-67
2022/07/21 02:43:44;;;;;;;43.00;29.50;;;19.50;99.90;;;;;;4975724;28;20097;-67
2022/07/21 02:46:10;;;;;;;38.15;27.48;;;19.40;99.90;;;;;;4959829;28;20042;-67
2022/07/21 02:48:36;;;;;;;38.10;27.90;;;19.40;99.90;;;;;;4960047;28;20045;-67
2022/07/21 02:51:02;;;;;;;52.38;29.73;;;19.40;99.90;;;;;;4994952;28;20492;-67
2022/07/21 02:53:28;;;;;;;49.75;30.15;;;19.40;99.90;;;;;;5012784;28;20038;-66
2022/07/21 02:55:53;;;;;;;48.13;30.98;;;19.40;99.90;;;;;;4992592;28;20053;-66
2022/07/21 02:58:27;;;;;;;51.13;32.70;;;19.40;99.90;;;;;;5012564;28;20038;-67
2022/07/21 03:00:58;;;;;;;49.05;30.52;;;19.40;99.90;;;;;;4978712;28;20485;-66
2022/07/21 03:03:30;;;;;;;51.63;32.08;;;19.30;99.90;;;;;;4994994;28;20052;-70
2022/07/21 03:05:57;;;;;;;40.15;29.08;;;19.30;99.90;;;;;;4994904;28;20487;-68
2022/07/21 03:08:23;;;;;;;83.90;39.17;;;19.20;99.90;;;;;;4994904;28;20447;-71
2022/07/21 03:10:50;;;;;;;45.20;30.52;;;19.10;99.90;;;;;;4994972;28;20380;-69
2022/07/21 03:13:16;;;;;;;36.58;28.02;;;19.10;99.90;;;;;;5012588;28;20034;-67
2022/07/21 03:15:42;;;;;;;34.20;25.30;;;19.00;99.90;;;;;;4994808;28;20116;-66
2022/07/21 03:18:08;;;;;;;30.00;24.05;;;18.90;99.90;;;;;;4994889;28;20034;-67
2022/07/21 03:20:36;;;;;;;36.58;26.58;;;18.80;99.90;;;;;;4994747;28;20108;-66
2022/07/21 03:23:03;;;;;;;32.05;24.98;;;18.70;99.90;;;;;;4992121;28;20077;-67
2022/07/21 03:25:29;;;;;;;33.15;25.13;;;18.70;99.90;;;;;;4990706;28;20118;-66
2022/07/21 03:27:55;;;;;;;30.45;24.02;;;18.60;99.90;;;;;;4975334;28;20528;-67
2022/07/21 03:30:22;;;;;;;32.03;24.25;;;18.60;99.90;;;;;;4975350;28;20085;-67
2022/07/21 03:32:49;;;;;;;34.88;26.40;;;18.50;99.90;;;;;;4959210;28;20125;-66
2022/07/21 03:35:15;;;;;;;33.42;24.15;;;18.50;99.90;;;;;;4992669;28;20670;-66
2022/07/21 03:37:46;;;;;;;33.30;25.27;;;18.50;99.90;;;;;;4992591;28;20042;-66
2022/07/21 03:40:14;;;;;;;29.25;24.55;;;18.50;99.90;;;;;;4978695;28;20109;-66
2022/07/21 03:42:40;;;;;;;32.30;25.05;;;18.50;99.90;;;;;;4995990;28;20101;-66
2022/07/21 03:45:07;;;;;;;34.30;25.98;;;18.50;99.90;;;;;;4996041;28;20049;-65
2022/07/21 03:47:33;;;;;;;40.08;28.33;;;18.50;99.90;;;;;;4962731;28;20137;-66
2022/07/21 03:49:59;;;;;;;34.20;25.30;;;18.50;99.90;;;;;;4995786;28;20050;-66
2022/07/21 03:52:26;;;;;;;29.30;23.95;;;18.50;99.90;;;;;;4962733;28;20038;-66
2022/07/21 03:55:07;;;;;;;30.02;24.08;;;18.50;99.90;;;;;;4976343;28;20044;-66
2022/07/21 03:57:46;;;;;;;29.27;24.52;;;18.50;99.90;;;;;;4995795;28;20381;-66
2022/07/21 04:00:18;;;;;;;33.58;25.48;;;18.40;99.90;;;;;;4962653;28;20428;-67
2022/07/21 04:02:45;;;;;;;31.75;24.77;;;18.40;99.90;;;;;;4978459;28;20481;-67
2022/07/21 04:05:12;;;;;;;33.13;25.75;;;18.40;99.90;;;;;;4959562;28;20089;-67
2022/07/21 04:07:40;;;;;;;33.20;25.40;;;18.40;99.90;;;;;;4977942;28;20054;-67
2022/07/21 04:10:08;;;;;;;31.88;24.25;;;18.30;99.90;;;;;;4977953;28;20531;-66
2022/07/21 04:12:34;;;;;;;34.92;26.30;;;18.30;99.90;;;;;;4978109;28;20074;-66
2022/07/21 04:15:00;;;;;;;30.60;24.42;;;18.30;99.90;;;;;;4978152;28;20042;-66
2022/07/21 04:17:26;;;;;;;32.17;25.15;;;18.30;99.90;;;;;;4995592;28;20098;-66
2022/07/21 04:19:51;;;;;;;36.05;25.17;;;18.30;99.90;;;;;;4977991;28;20081;-66
2022/07/21 04:22:18;;;;;;;27.83;23.33;;;18.30;99.90;;;;;;4961994;28;20128;-66
2022/07/21 04:24:43;;;;;;;31.20;24.63;;;18.30;99.90;;;;;;5009453;28;20124;-66
2022/07/21 04:27:09;;;;;;;35.28;25.77;;;18.30;99.90;;;;;;4997534;28;20104;-66
2022/07/21 04:29:35;;;;;;;36.35;26.75;;;18.30;99.90;;;;;;4981026;28;20069;-66
2022/07/21 04:32:01;;;;;;;36.03;27.42;;;18.30;99.90;;;;;;4997111;28;20116;-66
2022/07/21 04:34:28;;;;;;;37.88;26.75;;;18.30;99.90;;;;;;5014867;28;20038;-66
2022/07/21 04:36:54;;;;;;;35.30;26.23;;;18.30;99.90;;;;;;5014747;28;20092;-66
2022/07/21 04:39:20;;;;;;;35.75;25.15;;;18.30;99.90;;;;;;5014767;28;20526;-67
2022/07/21 04:41:46;;;;;;;33.95;26.02;;;18.30;99.90;;;;;;4980959;28;20037;-68
2022/07/21 04:44:12;;;;;;;36.38;26.13;;;18.30;99.90;;;;;;4997201;28;20147;-67
2022/07/21 04:46:38;;;;;;;36.63;26.63;;;18.30;99.90;;;;;;4996849;28;20404;-69
2022/07/21 04:49:04;;;;;;;36.55;28.02;;;18.30;99.90;;;;;;4980785;28;20042;-68
2022/07/21 04:51:30;;;;;;;40.10;29.40;;;18.40;99.90;;;;;;5013722;28;20041;-68
2022/07/21 04:53:56;;;;;;;34.90;27.40;;;18.40;99.90;;;;;;4996735;28;20428;-68
2022/07/21 04:56:22;;;;;;;40.28;28.85;;;18.40;99.90;;;;;;5012416;28;20102;-67
2022/07/21 04:58:48;;;;;;;40.85;31.38;;;18.40;99.90;;;;;;4980612;28;20092;-67
2022/07/21 05:01:14;;;;;;;37.13;29.17;;;18.50;99.90;;;;;;4980800;28;20037;-67
2022/07/21 05:03:40;;;;;;;40.10;29.90;;;18.50;99.90;;;;;;4996584;28;20559;-68
2022/07/21 05:06:06;;;;;;;44.53;32.63;;;18.50;99.90;;;;;;4996610;28;20046;-68
2022/07/21 05:08:32;;;;;;;43.60;31.83;;;18.60;99.90;;;;;;4977489;28;20058;-68
2022/07/21 05:10:58;;;;;;;39.20;30.50;;;18.60;99.90;;;;;;4994340;28;20054;-68
2022/07/21 05:13:24;;;;;;;38.13;30.63;;;18.60;99.90;;;;;;4994604;28;20049;-68
2022/07/21 05:15:50;;;;;;;45.00;31.77;;;18.70;99.90;;;;;;4994260;28;20034;-69
2022/07/21 05:18:16;;;;;;;44.08;33.53;;;18.70;99.90;;;;;;4994301;28;20358;-69
2022/07/21 05:20:42;;;;;;;49.17;35.35;;;18.70;99.90;;;;;;4976926;28;20488;-70
2022/07/21 05:23:08;;;;;;;41.92;32.65;;;18.80;99.90;;;;;;4990445;28;20050;-69
2022/07/21 05:25:35;;;;;;;48.72;34.53;;;18.80;99.90;;;;;;4972569;28;20051;-69
2022/07/21 05:28:02;;;;;;;45.97;34.15;;;18.80;99.90;;;;;;4957189;28;20046;-71
2022/07/21 05:30:28;;;;;;;51.80;35.53;;;18.80;99.90;;;;;;4957528;28;20504;-71
2022/07/21 05:32:54;;;;;;;38.10;30.83;;;18.90;99.90;;;;;;4974715;28;20035;-71
2022/07/21 05:35:20;;;;;;;45.83;33.53;;;18.90;99.90;;;;;;4957545;28;20088;-71
2022/07/21 05:37:46;;;;;;;45.80;31.92;;;18.90;99.90;;;;;;4957425;28;20129;-71
2022/07/21 05:40:12;;;;;;;32.58;26.95;;;19.00;99.90;;;;;;4974442;28;20081;-70
2022/07/21 05:42:39;;;;;;;36.42;28.88;;;18.90;99.90;;;;;;4974432;28;20043;-73
2022/07/21 05:45:06;;;;;;;35.08;28.88;;;18.90;99.90;;;;;;4941236;28;20049;-72
2022/07/21 05:47:32;;;;;;;30.35;26.02;;;18.90;99.90;;;;;;4974370;28;20038;-71
2022/07/21 05:49:59;;;;;;;33.75;27.27;;;18.90;99.90;;;;;;4940511;28;20520;-72
2022/07/21 05:52:25;;;;;;;33.15;25.73;;;18.90;99.90;;;;;;4973352;28;20042;-72
2022/07/21 05:54:51;;;;;;;32.78;26.60;;;18.90;99.90;;;;;;4954028;28;20060;-72
2022/07/21 05:57:18;;;;;;;33.83;25.58;;;18.90;99.90;;;;;;4956211;28;20539;-71
2022/07/21 05:59:45;;;;;;;28.67;23.95;;;18.90;99.90;;;;;;4955998;28;20046;-70
2022/07/21 06:02:11;;;;;;;35.00;27.42;;;18.90;99.90;;;;;;4955813;28;20054;-70
2022/07/21 06:04:37;;;;;;;34.22;27.17;;;18.90;99.90;;;;;;4957035;28;20039;-70
2022/07/21 06:07:03;;;;;;;33.67;26.20;;;18.90;99.90;;;;;;4956607;28;20148;-69
2022/07/21 06:09:29;;;;;;;33.50;26.10;;;19.00;99.90;;;;;;4956845;28;20448;-70
2022/07/21 06:11:56;;;;;;;37.20;28.52;;;19.10;99.90;;;;;;4974144;28;20114;-70
2022/07/21 06:14:22;;;;;;;29.65;25.77;;;19.30;99.90;;;;;;4974068;28;20043;-69
2022/07/21 06:16:48;;;;;;;28.90;25.20;;;19.40;99.90;;;;;;4956690;28;20031;-69
2022/07/21 06:19:14;;;;;;;28.38;23.45;;;19.70;99.90;;;;;;4972960;28;20042;-69
2022/07/21 06:21:42;;;;;;;27.10;24.05;;;19.80;99.90;;;;;;4972991;28;20093;-69
2022/07/21 06:24:09;;;;;;;31.10;24.92;;;20.00;99.90;;;;;;4967755;28;20128;-71
2022/07/21 06:26:35;;;;;;;29.90;23.25;;;20.20;99.90;;;;;;4991124;28;20042;-71
2022/07/21 06:29:01;;;;;;;29.13;25.70;;;20.40;99.90;;;;;;4975008;28;20493;-74
2022/07/21 06:31:27;;;;;;;31.95;25.38;;;20.60;99.90;;;;;;4974844;28;20579;-73
2022/07/21 06:33:52;;;;;;;28.90;24.23;;;20.70;99.90;;;;;;4992728;28;20090;-71
2022/07/21 06:36:18;;;;;;;27.10;23.75;;;20.90;99.90;;;;;;4992455;28;20038;-70
2022/07/21 06:38:44;;;;;;;29.70;24.58;;;21.00;99.90;;;;;;4958729;28;20408;-69
2022/07/21 06:41:11;;;;;;;31.67;25.08;;;21.00;99.90;;;;;;4975039;28;20547;-71
2022/07/21 06:43:37;;;;;;;26.63;23.35;;;20.80;99.90;;;;;;4974843;28;20049;-69
2022/07/21 06:46:03;;;;;;;29.52;25.15;;;20.70;99.90;;;;;;4992393;28;20046;-70
2022/07/21 06:48:29;;;;;;;31.30;26.58;;;20.50;99.90;;;;;;4992186;28;20054;-70
2022/07/21 06:50:55;;;;;;;34.20;25.85;;;20.40;99.90;;;;;;4974633;28;20046;-70
2022/07/21 06:53:23;;;;;;;32.80;26.60;;;20.30;99.90;;;;;;4992331;28;20046;-70
2022/07/21 06:55:52;;;;;;;35.95;28.02;;;20.20;99.90;;;;;;4990011;28;20034;-69
2022/07/21 06:58:22;;;;;;;33.40;27.50;;;20.00;99.90;;;;;;4974852;28;20397;-69
2022/07/21 07:00:49;;;;;;;34.70;27.05;;;19.90;99.90;;;;;;4974654;28;20493;-68
2022/07/21 07:03:15;;;;;;;34.70;27.45;;;19.80;99.90;;;;;;4958446;28;20050;-69
2022/07/21 07:05:42;;;;;;;39.83;28.90;;;19.70;99.90;;;;;;4974863;28;20128;-69
2022/07/21 07:08:09;;;;;;;36.05;29.48;;;19.60;99.90;;;;;;4958398;28;20116;-69
2022/07/21 07:10:35;;;;;;;40.58;29.92;;;19.60;99.90;;;;;;4974554;28;20089;-69
2022/07/21 07:13:01;;;;;;;38.33;30.83;;;19.50;99.90;;;;;;4992322;28;20070;-69
2022/07/21 07:15:28;;;;;;;42.88;31.67;;;19.50;99.90;;;;;;4995690;28;20041;-68
2022/07/21 07:17:54;;;;;;;42.58;32.30;;;19.40;99.90;;;;;;4978155;28;20125;-72
2022/07/21 07:20:21;;;;;;;43.08;32.25;;;19.40;99.90;;;;;;4996250;28;20046;-70
2022/07/21 07:22:47;;;;;;;47.35;32.42;;;19.40;99.90;;;;;;4974066;28;20042;-70
2022/07/21 07:25:16;;;;;;;49.05;34.83;;;19.30;99.90;;;;;;4957770;28;20109;-74
2022/07/21 07:27:47;;;;;;;55.40;37.57;;;19.30;99.90;;;;;;4959852;28;20061;-73
2022/07/21 07:30:14;;;;;;;53.58;38.97;;;19.20;99.90;;;;;;4959835;28;20317;-73
2022/07/21 07:32:40;;;;;;;67.43;43.35;;;19.00;99.90;;;;;;4959530;28;20130;-76
2022/07/21 07:35:09;;;;;;;62.55;44.95;;;18.90;99.90;;;;;;4959743;28;20121;-75
2022/07/21 07:37:40;;;;;;;73.55;45.88;;;18.70;99.90;;;;;;4976912;28;20045;-70
2022/07/21 07:40:09;;;;;;;62.63;43.05;;;18.60;99.90;;;;;;4943534;28;20552;-73
2022/07/21 07:42:36;;;;;;;70.53;47.00;;;18.60;99.90;;;;;;4959530;28;20073;-74
2022/07/21 07:45:03;;;;;;;79.38;46.97;;;18.60;99.90;;;;;;4959355;28;20178;-73
2022/07/21 07:47:30;;;;;;;75.45;46.70;;;18.60;99.90;;;;;;4959591;28;20065;-73
2022/07/21 07:49:56;;;;;;;71.38;45.50;;;18.50;99.90;;;;;;4959040;28;20051;-67
2022/07/21 07:52:22;;;;;;;76.35;48.75;;;18.50;99.90;;;;;;4943329;28;20050;-71
2022/07/21 07:54:48;;;;;;;77.78;48.80;;;18.50;99.90;;;;;;4973951;28;20169;-67
2022/07/21 07:57:14;;;;;;;72.88;46.22;;;18.40;99.90;;;;;;4959186;28;20118;-71
2022/07/21 07:59:40;;;;;;;74.07;47.08;;;18.50;99.90;;;;;;4958809;28;20125;-69
2022/07/21 08:02:06;;;;;;;82.30;50.65;;;18.50;99.90;;;;;;4976398;28;20109;-67
2022/07/21 08:04:32;;;;;;;75.05;49.05;;;18.50;99.90;;;;;;4958871;28;20046;-67
2022/07/21 08:06:58;;;;;;;61.67;39.00;;;18.50;99.90;;;;;;4958719;28;20051;-72
2022/07/21 08:09:23;;;;;;;68.18;46.30;;;18.60;99.90;;;;;;4976235;28;20043;-70
2022/07/21 08:11:50;;;;;;;76.72;49.85;;;18.60;99.90;;;;;;4942784;28;20042;-72
2022/07/21 08:14:17;;;;;;;76.53;50.22;;;18.60;99.90;;;;;;4973760;28;20582;-74
2022/07/21 08:16:42;;;;;;;73.20;49.30;;;18.60;99.90;;;;;;4978263;28;20038;-73
2022/07/21 08:19:09;;;;;;;77.28;49.63;;;18.60;99.90;;;;;;4974589;28;20578;-72
2022/07/21 08:21:35;;;;;;;76.50;49.80;;;18.70;99.90;;;;;;4974793;28;20089;-73
2022/07/21 08:24:01;;;;;;;79.55;53.38;;;18.70;99.90;;;;;;4977717;28;20440;-70
2022/07/21 08:26:27;;;;;;;98.15;55.55;;;18.70;99.90;;;;;;4992199;28;20045;-71
2022/07/21 08:28:54;;;;;;;85.38;52.55;;;18.70;99.90;;;;;;4961397;28;20100;-72
2022/07/21 08:31:21;;;;;;;96.78;56.72;;;18.80;99.90;;;;;;4967845;28;20080;-73
2022/07/21 08:33:46;;;;;;;87.72;54.83;;;18.90;99.90;;;;;;4958297;28;20490;-74
2022/07/21 08:36:12;;;;;;;84.47;55.80;;;19.00;99.90;;;;;;4975743;28;20089;-74
2022/07/21 08:38:38;;;;;;;79.63;52.17;;;19.10;99.90;;;;;;4975677;28;20042;-75
2022/07/21 08:41:04;;;;;;;86.93;53.85;;;19.20;99.90;;;;;;4975422;28;20089;-73
2022/07/21 08:43:30;;;;;;;92.95;55.83;;;19.30;99.90;;;;;;4975430;28;20046;-74
2022/07/21 08:45:57;;;;;;;88.50;52.85;;;19.30;99.90;;;;;;4958264;28;20121;-73
2022/07/21 08:48:29;;;;;;;93.18;58.00;;;19.40;99.90;;;;;;4975487;28;20054;-74
2022/07/21 08:50:55;;;;;;;86.50;55.65;;;19.50;99.90;;;;;;4958012;28;20057;-73
2022/07/21 08:53:21;;;;;;;76.07;52.05;;;19.60;99.90;;;;;;4975675;28;20197;-72
2022/07/21 08:55:48;;;;;;;81.25;54.03;;;19.60;99.90;;;;;;4956295;28;20045;-72
2022/07/21 08:58:14;;;;;;;74.53;51.00;;;19.60;99.90;;;;;;4958159;28;20038;-72
2022/07/21 09:00:43;;;;;;;70.95;48.67;;;19.60;99.90;;;;;;4976013;28;20074;-71
2022/07/21 09:03:18;;;;;;;73.18;48.58;;;19.70;99.90;;;;;;4957973;28;20130;-73
2022/07/21 09:06:07;;;;;;;71.53;50.35;;;19.70;99.90;;;;;;4957758;28;20047;-73
2022/07/21 09:08:36;;;;;;;102.87;57.13;;;19.70;99.90;;;;;;4976382;28;20507;-73
2022/07/21 09:11:15;;;;;;;77.97;51.92;;;19.80;99.90;;;;;;4976863;28;20372;-73
2022/07/21 09:13:43;;;;;;;63.22;45.88;;;19.90;99.90;;;;;;4977005;28;20042;-73
2022/07/21 09:16:10;;;;;;;60.13;44.00;;;19.90;99.90;;;;;;4977058;28;20125;-74
2022/07/21 09:18:51;;;;;;;70.38;49.85;;;19.90;99.90;;;;;;4977167;28;20074;-73
2022/07/21 09:21:18;;;;;;;63.55;46.67;;;19.90;99.90;;;;;;4994230;28;20362;-74
2022/07/21 09:23:44;;;;;;;82.47;52.00;;;20.00;99.90;;;;;;4994274;28;20041;-73
2022/07/21 09:26:10;;;;;;;76.80;50.17;;;20.00;99.90;;;;;;4974773;28;20121;-73
2022/07/21 09:28:36;;;;;;;68.32;48.15;;;20.00;99.90;;;;;;4976736;28;20181;-73
2022/07/21 09:31:06;;;;;;;61.33;46.35;;;20.10;99.90;;;;;;4976540;28;20042;-73
2022/07/21 09:33:40;;;;;;;67.30;46.40;;;20.10;99.90;;;;;;4976799;28;20046;-73
2022/07/21 09:36:10;;;;;;;66.45;47.15;;;20.10;99.90;;;;;;4976415;28;20038;-73
2022/07/21 09:38:41;;;;;;;;;;;20.10;99.90;;;;;;4993349;28;20074;-72
2022/07/21 09:41:15;;;;;;;51.03;40.15;;;20.10;99.90;;;;;;4976147;28;20419;-73
2022/07/21 09:43:43;;;;;;;57.88;41.45;;;20.10;99.90;;;;;;4976589;28;20635;-73
2022/07/21 09:46:20;;;;;;;56.95;42.67;;;20.20;99.90;;;;;;4980764;28;20104;-73
2022/07/21 09:48:48;;;;;;;60.78;43.17;;;20.20;99.90;;;;;;4960300;28;20045;-73
2022/07/21 09:51:29;;;;;;;54.40;40.90;;;20.20;99.90;;;;;;4960064;28;20047;-74
2022/07/21 09:53:59;;;;;;;60.55;42.58;;;20.20;99.90;;;;;;4976075;28;20046;-75
2022/07/21 09:56:28;;;;;;;52.72;39.42;;;20.20;99.90;;;;;;4991035;28;20129;-74
2022/07/21 09:58:56;;;;;;;47.80;38.30;;;20.20;99.90;;;;;;4960171;28;20457;-74
2022/07/21 10:01:23;;;;;;;51.40;39.33;;;20.20;99.90;;;;;;4975887;28;20791;-73
2022/07/21 10:03:50;;;;;;;46.65;37.17;;;20.30;99.90;;;;;;4993349;28;20046;-73
2022/07/21 10:06:18;;;;;;;49.28;37.60;;;20.30;99.90;;;;;;4975719;28;20128;-73
2022/07/21 10:08:45;;;;;;;49.40;39.13;;;20.30;99.90;;;;;;4976117;28;20038;-74
2022/07/21 10:11:11;;;;;;;46.47;36.55;;;20.30;99.90;;;;;;4993065;28;20472;-73
2022/07/21 10:13:38;;;;;;;50.80;39.33;;;20.30;99.90;;;;;;4993436;28;20145;-74
2022/07/21 10:16:04;;;;;;;47.22;37.85;;;20.30;99.90;;;;;;4959741;28;20042;-72
2022/07/21 10:18:39;;;;;;;58.83;42.35;;;20.40;99.90;;;;;;4993500;28;20049;-72
2022/07/21 10:21:28;;;;;;;59.20;39.88;;;20.40;99.90;;;;;;4993111;28;20116;-70
2022/07/21 10:23:55;;;;;;;49.42;37.47;;;20.50;99.90;;;;;;4983596;28;20444;-69
2022/07/21 10:26:21;;;;;;;46.17;36.92;;;20.60;99.90;;;;;;4971912;28;20068;-71
2022/07/21 10:28:47;;;;;;;49.30;38.78;;;20.70;99.90;;;;;;4956425;28;20042;-72
2022/07/21 10:31:22;;;;;;;50.47;39.28;;;20.90;99.90;;;;;;4956449;28;20084;-73
2022/07/21 10:33:48;;;;;;;59.75;42.80;;;20.90;99.90;;;;;;4963600;28;20069;-72
2022/07/21 10:36:26;;;;;;;48.10;37.47;;;21.00;99.90;;;;;;4963336;28;20055;-73
2022/07/21 10:39:10;;;;;;;46.75;37.50;;;21.10;99.90;;;;;;4974676;28;20094;-73
2022/07/21 10:41:37;;;;;;;47.25;37.47;;;21.20;99.90;;;;;;4993296;28;20042;-72
2022/07/21 10:44:03;;;;;;;49.83;39.20;;;21.20;99.90;;;;;;4993257;28;20089;-73
2022/07/21 10:46:33;;;;;;;46.53;37.47;;;21.10;99.90;;;;;;4975569;28;20508;-73
2022/07/21 10:48:59;;;;;;;48.38;39.22;;;21.10;99.90;;;;;;4961554;28;20390;-73
2022/07/21 10:51:25;;;;;;;49.85;39.03;;;21.10;99.90;;;;;;4959214;28;20078;-72
2022/07/21 10:54:16;;;;;;;52.40;40.85;;;21.10;99.90;;;;;;4960107;28;20125;-71
2022/07/21 10:56:42;;;;;;;49.83;39.65;;;21.00;99.90;;;;;;4958331;28;20565;-73
2022/07/21 10:59:08;;;;;;;53.00;39.65;;;20.90;99.90;;;;;;4959867;28;20138;-71
2022/07/21 11:01:35;;;;;;;84.07;48.35;;;20.70;99.90;;;;;;4959972;28;20047;-67
2022/07/21 11:04:07;;;;;;;65.28;43.47;;;20.50;99.90;;;;;;4960112;28;20453;-66
2022/07/21 11:06:34;;;;;;;53.30;37.03;;;20.30;99.90;;;;;;4962349;28;20077;-70
2022/07/21 11:09:10;;;;;;;48.95;33.97;;;20.10;99.90;;;;;;4979128;28;20113;-68
2022/07/21 11:11:38;;;;;;;50.97;36.35;;;20.00;99.90;;;;;;4962864;28;20566;-70
2022/07/21 11:14:07;;;;;;;49.28;35.67;;;19.90;99.90;;;;;;4979434;28;20045;-70
2022/07/21 11:17:03;;;;;;;52.70;37.37;;;19.90;99.90;;;;;;4979294;28;20042;-71
2022/07/21 11:19:46;;;;;;;49.92;35.83;;;19.90;99.90;;;;;;4995977;28;20100;-70
2022/07/21 11:22:19;;;;;;;63.95;40.70;;;19.90;99.90;;;;;;4978851;28;20523;-70
2022/07/21 11:24:45;;;;;;;53.67;37.90;;;19.90;99.90;;;;;;5010891;28;20117;-70
2022/07/21 11:27:35;;;;;;;49.67;36.85;;;20.00;99.90;;;;;;4998391;28;20100;-68
2022/07/21 11:30:07;;;;;;;78.43;41.78;;;19.90;99.90;;;;;;4979038;28;20048;-70
2022/07/21 11:32:33;;;;;;;48.63;34.38;;;20.00;99.90;;;;;;4995922;28;20038;-67
2022/07/21 11:35:04;;;;;;;53.50;36.60;;;20.00;99.90;;;;;;4978660;28;20070;-67
2022/07/21 11:37:44;;;;;;;54.35;36.72;;;20.00;99.90;;;;;;4994779;28;20042;-66
2022/07/21 11:40:18;;;;;;;;;;;20.10;99.90;;;;;;4979413;28;20452;-66
2022/07/21 11:42:46;;;;;;;29.88;23.83;;;20.20;99.90;;;;;;4962458;28;19969;-66
2022/07/21 11:45:13;;;;;;;30.55;23.60;;;20.20;99.90;;;;;;4978491;28;20841;-66
2022/07/21 11:47:41;;;;;;;25.20;19.33;;;20.30;99.90;;;;;;5016885;28;20538;-66
2022/07/21 11:50:10;;;;;;;23.95;20.08;;;20.30;99.90;;;;;;5015443;28;20067;-67
2022/07/21 11:52:37;;;;;;;18.27;16.38;;;20.40;99.90;;;;;;4997551;28;20477;-66
2022/07/21 11:55:05;;;;;;;21.65;18.52;;;20.40;99.90;;;;;;5013056;28;20038;-67
2022/07/21 11:57:32;;;;;;;19.90;17.52;;;20.40;99.90;;;;;;4997581;28;20057;-67
2022/07/21 12:00:00;;;;;;;16.80;15.10;;;20.40;99.90;;;;;;4997511;28;20046;-67
2022/07/21 12:02:30;;;;;;;17.77;15.90;;;20.40;99.90;;;;;;4997408;28;20042;-68
2022/07/21 12:04:58;;;;;;;15.63;14.02;;;20.30;99.90;;;;;;4997671;28;20038;-68
2022/07/21 12:07:29;;;;;;;15.32;13.85;;;20.30;99.90;;;;;;4997113;28;20064;-68
2022/07/21 12:10:06;;;;;;;15.32;13.82;;;20.30;99.90;;;;;;5014822;28;20477;-68
2022/07/21 12:12:41;;;;;;;21.50;18.45;;;20.30;99.90;;;;;;4997478;28;20033;-69
2022/07/21 12:15:12;;;;;;;19.75;17.50;;;20.30;99.90;;;;;;4997250;28;20045;-69
2022/07/21 12:17:41;;;;;;;19.35;17.13;;;20.40;99.90;;;;;;4997445;28;20073;-69
2022/07/21 12:20:08;;;;;;;20.35;18.17;;;20.40;99.90;;;;;;4997277;28;20042;-69
2022/07/21 12:22:42;;;;;;;17.88;15.98;;;20.40;99.90;;;;;;4997120;28;20111;-70
2022/07/21 12:25:09;;;;;;;18.40;16.52;;;20.40;99.90;;;;;;4975659;28;20762;-70
2022/07/21 12:27:37;;;;;;;17.63;15.93;;;20.30;99.90;;;;;;4978810;28;20508;-70
2022/07/21 12:30:05;;;;;;;15.90;14.30;;;20.30;99.90;;;;;;5014832;28;20034;-70
2022/07/21 12:32:38;;;;;;;19.05;17.05;;;20.30;99.90;;;;;;5014802;28;20038;-70
2022/07/21 12:35:05;;;;;;;20.08;18.05;;;20.20;99.90;;;;;;4997658;28;20369;-70